Time;durP1;ratioP1;P1;durP2;ratioP2;P2;SDS_P1;SDS_P2;PMS_P1;PMS_P2;Temp;Humidity;BMP_temperature;BMP_pressure;BME280_temperature;BME280_humidity;BME280_pressure;Samples;Min_cycle;Max_cycle;Signal;HPM_P1;HPM_P2
2022/12/10 00:01:30;;;;;;;35.72;18.50;;;1.30;82.20;;;;;;5012266;28;20056;-66
2022/12/10 00:03:56;;;;;;;31.73;17.75;;;1.30;82.20;;;;;;5018659;28;20051;-66
2022/12/10 00:06:26;;;;;;;32.83;18.75;;;1.30;82.20;;;;;;5016905;28;20022;-66
2022/12/10 00:08:52;;;;;;;31.25;17.38;;;1.30;82.20;;;;;;5013749;28;20025;-66
2022/12/10 00:11:20;;;;;;;31.50;18.73;;;1.30;82.20;;;;;;5028124;28;20105;-67
2022/12/10 00:13:47;;;;;;;34.40;19.65;;;1.30;82.20;;;;;;5026384;28;20052;-67
2022/12/10 00:16:15;;;;;;;32.83;18.00;;;1.30;82.20;;;;;;5018723;28;20507;-66
2022/12/10 00:18:41;;;;;;;31.83;18.67;;;1.30;82.30;;;;;;5021015;28;21697;-65
2022/12/10 00:21:13;;;;;;;33.55;19.85;;;1.30;82.40;;;;;;5026337;28;20029;-66
2022/12/10 00:23:39;;;;;;;36.43;20.50;;;1.30;82.30;;;;;;5027655;28;20111;-67
2022/12/10 00:26:15;;;;;;;37.47;20.33;;;1.30;82.40;;;;;;5022343;28;20037;-65
2022/12/10 00:28:41;;;;;;;42.35;22.65;;;1.20;82.30;;;;;;5026539;28;20021;-67
2022/12/10 00:31:13;;;;;;;34.72;19.67;;;1.20;82.30;;;;;;5030944;28;20108;-67
2022/12/10 00:33:40;;;;;;;36.35;20.05;;;1.20;82.40;;;;;;5018469;28;20022;-67
2022/12/10 00:36:10;;;;;;;40.03;21.42;;;1.20;82.40;;;;;;5005851;28;20041;-66
2022/12/10 00:38:37;;;;;;;41.25;22.55;;;1.10;82.50;;;;;;5028906;28;20105;-67
2022/12/10 00:41:03;;;;;;;38.92;21.92;;;1.10;82.50;;;;;;5025304;28;20014;-66
2022/12/10 00:43:29;;;;;;;41.65;22.58;;;1.00;82.50;;;;;;5027403;28;20506;-67
2022/12/10 00:45:54;;;;;;;37.42;21.02;;;1.00;82.60;;;;;;5023669;28;20037;-66
2022/12/10 00:48:21;;;;;;;37.60;21.38;;;1.00;82.60;;;;;;5029221;28;20029;-66
2022/12/10 00:51:02;;;;;;;41.95;21.48;;;1.00;82.70;;;;;;5023042;28;20037;-67
2022/12/10 00:53:30;;;;;;;40.80;21.52;;;1.00;82.70;;;;;;5028915;28;20053;-67
2022/12/10 00:55:56;;;;;;;39.38;20.70;;;1.00;82.70;;;;;;5024533;28;20341;-67
2022/12/10 00:58:22;;;;;;;36.55;20.15;;;1.00;82.70;;;;;;5026827;28;20075;-66
2022/12/10 01:00:48;;;;;;;38.97;21.48;;;1.00;82.70;;;;;;5023433;28;20117;-67
2022/12/10 01:03:15;;;;;;;35.60;20.17;;;1.00;82.60;;;;;;5022600;28;20108;-67
2022/12/10 01:05:40;;;;;;;33.90;19.08;;;1.00;82.70;;;;;;5028356;28;20026;-67
2022/12/10 01:08:07;;;;;;;39.10;20.95;;;1.00;82.70;;;;;;5023405;28;20032;-66
2022/12/10 01:10:33;;;;;;;39.42;21.73;;;0.90;82.70;;;;;;5008809;28;20022;-67
2022/12/10 01:12:58;;;;;;;39.78;21.77;;;1.00;82.80;;;;;;5024387;28;20076;-67
2022/12/10 01:15:25;;;;;;;41.53;22.35;;;0.90;82.70;;;;;;5028073;28;20081;-67
2022/12/10 01:17:50;;;;;;;37.85;21.60;;;0.90;82.60;;;;;;5010413;28;20700;-67
2022/12/10 01:20:16;;;;;;;39.38;22.20;;;0.90;82.60;;;;;;5016924;28;20026;-67
2022/12/10 01:22:41;;;;;;;39.85;21.88;;;0.90;82.70;;;;;;5025765;28;20124;-66
2022/12/10 01:25:07;;;;;;;41.15;22.73;;;0.90;82.70;;;;;;5000974;28;20045;-67
2022/12/10 01:27:33;;;;;;;39.95;21.10;;;0.80;82.70;;;;;;5025407;28;20029;-67
2022/12/10 01:29:58;;;;;;;38.28;21.20;;;0.80;83.40;;;;;;5021908;28;20033;-67
2022/12/10 01:32:24;;;;;;;37.85;20.27;;;0.80;82.80;;;;;;5028423;28;20476;-65
2022/12/10 01:34:50;;;;;;;50.75;27.92;;;0.80;82.80;;;;;;5028052;28;20134;-67
2022/12/10 01:37:15;;;;;;;44.42;24.92;;;0.80;82.70;;;;;;5027964;28;20029;-67
2022/12/10 01:39:41;;;;;;;38.70;21.88;;;0.80;82.80;;;;;;5027323;28;20038;-66
2022/12/10 01:42:11;;;;;;;38.22;19.95;;;0.80;82.90;;;;;;5022174;28;20519;-66
2022/12/10 01:44:43;;;;;;;37.20;20.70;;;0.80;82.90;;;;;;5024107;28;20028;-66
2022/12/10 01:47:09;;;;;;;40.17;21.67;;;0.80;82.80;;;;;;5028241;28;20032;-66
2022/12/10 01:49:38;;;;;;;40.33;22.45;;;0.80;82.80;;;;;;5024006;28;20026;-66
2022/12/10 01:52:06;;;;;;;33.47;18.17;;;0.80;82.90;;;;;;5023453;28;20100;-66
2022/12/10 01:54:35;;;;;;;37.90;20.33;;;0.80;82.90;;;;;;5021000;28;20024;-66
2022/12/10 01:57:14;;;;;;;35.80;20.38;;;0.70;82.80;;;;;;5022394;28;20029;-65
2022/12/10 01:59:41;;;;;;;34.25;18.55;;;0.70;82.90;;;;;;5027983;28;20036;-65
2022/12/10 02:02:40;;;;;;;35.10;18.75;;;0.70;82.90;;;;;;5031324;28;20033;-65
2022/12/10 02:05:11;;;;;;;38.35;20.65;;;0.80;83.10;;;;;;5029838;28;20036;-66
2022/12/10 02:07:50;;;;;;;42.55;23.85;;;0.70;82.80;;;;;;5028601;28;20535;-66
2022/12/10 02:10:57;;;;;;;41.22;22.05;;;0.70;82.90;;;;;;5026755;28;20634;-66
2022/12/10 02:13:34;;;;;;;41.60;21.85;;;0.70;83.00;;;;;;5000594;28;20128;-64
2022/12/10 02:16:05;;;;;;;41.10;21.42;;;0.60;83.00;;;;;;5020208;28;20033;-64
2022/12/10 02:18:59;;;;;;;34.13;18.65;;;0.70;83.00;;;;;;5024537;28;20063;-64
2022/12/10 02:21:33;;;;;;;34.38;19.38;;;0.70;83.00;;;;;;5027948;28;20098;-65
2022/12/10 02:24:08;;;;;;;32.97;18.55;;;0.70;82.90;;;;;;5021815;28;20037;-66
2022/12/10 02:26:53;;;;;;;33.60;17.50;;;0.70;83.10;;;;;;5025048;28;20396;-66
2022/12/10 02:29:23;;;;;;;42.65;22.33;;;0.70;83.10;;;;;;5027053;28;20030;-66
2022/12/10 02:31:54;;;;;;;37.10;20.23;;;0.70;83.10;;;;;;5031058;28;20029;-66
2022/12/10 02:34:23;;;;;;;35.85;18.92;;;0.70;83.10;;;;;;5029991;28;20388;-66
2022/12/10 02:36:51;;;;;;;35.17;19.83;;;0.70;83.20;;;;;;5031052;28;20044;-65
2022/12/10 02:39:23;;;;;;;34.28;18.60;;;0.70;83.10;;;;;;5025605;28;20030;-65
2022/12/10 02:41:52;;;;;;;41.47;22.40;;;0.70;83.10;;;;;;5030382;28;20382;-66
2022/12/10 02:44:21;;;;;;;40.40;22.02;;;0.70;83.10;;;;;;5028266;28;21016;-66
2022/12/10 02:46:51;;;;;;;34.58;20.05;;;0.60;83.10;;;;;;5030613;28;20026;-66
2022/12/10 02:49:18;;;;;;;45.75;25.17;;;0.60;83.10;;;;;;5030182;28;20030;-66
2022/12/10 02:51:43;;;;;;;43.38;23.00;;;0.60;83.10;;;;;;5030361;28;20025;-66
2022/12/10 02:54:54;;;;;;;38.72;21.33;;;0.60;83.10;;;;;;5012348;28;20412;-65
2022/12/10 02:57:20;;;;;;;42.53;22.33;;;0.60;83.30;;;;;;5026354;28;20037;-65
2022/12/10 03:00:12;;;;;;;42.10;23.13;;;0.50;83.20;;;;;;5030654;28;20060;-65
2022/12/10 03:03:06;;;;;;;50.30;26.73;;;0.50;83.20;;;;;;5012768;28;20494;-66
2022/12/10 03:05:42;;;;;;;46.58;25.27;;;0.40;83.30;;;;;;5023401;28;20498;-66
2022/12/10 03:08:21;;;;;;;34.38;19.65;;;0.40;83.40;;;;;;5030679;28;20029;-66
2022/12/10 03:10:58;;;;;;;37.13;19.80;;;0.40;83.60;;;;;;5029538;28;20037;-65
2022/12/10 03:13:35;;;;;;;35.63;20.05;;;0.40;83.40;;;;;;5018815;28;20665;-66
2022/12/10 03:16:02;;;;;;;36.20;19.80;;;0.50;83.50;;;;;;5024998;28;20051;-66
2022/12/10 03:18:30;;;;;;;34.60;18.95;;;0.50;83.50;;;;;;5027978;28;20040;-66
2022/12/10 03:21:01;;;;;;;31.25;17.52;;;0.50;83.50;;;;;;5030320;28;20061;-65
2022/12/10 03:23:28;;;;;;;36.58;19.80;;;0.60;83.50;;;;;;5022259;28;20103;-66
2022/12/10 03:25:54;;;;;;;33.42;19.33;;;0.60;83.50;;;;;;5025867;28;20430;-66
2022/12/10 03:28:22;;;;;;;40.75;22.45;;;0.60;83.50;;;;;;5029914;28;20462;-65
2022/12/10 03:30:50;;;;;;;49.33;26.10;;;0.50;83.40;;;;;;5012491;28;20044;-65
2022/12/10 03:33:16;;;;;;;40.75;21.92;;;0.50;83.40;;;;;;5011848;28;20108;-66
2022/12/10 03:35:43;;;;;;;34.42;19.73;;;0.40;83.50;;;;;;5025641;28;20033;-66
2022/12/10 03:38:09;;;;;;;33.67;19.48;;;0.40;83.50;;;;;;5029545;28;20037;-66
2022/12/10 03:40:35;;;;;;;37.80;20.25;;;0.50;83.50;;;;;;5029484;28;20033;-65
2022/12/10 03:43:01;;;;;;;49.60;26.38;;;0.50;83.50;;;;;;5012300;28;20025;-66
2022/12/10 03:45:26;;;;;;;40.45;22.23;;;0.50;84.10;;;;;;5024875;28;20033;-66
2022/12/10 03:47:52;;;;;;;37.95;21.15;;;0.40;84.10;;;;;;5030063;28;20025;-66
2022/12/10 03:50:18;;;;;;;47.28;25.35;;;0.40;83.50;;;;;;5022388;28;20060;-66
2022/12/10 03:52:43;;;;;;;39.72;21.88;;;0.30;83.50;;;;;;5028038;28;20025;-66
2022/12/10 03:55:09;;;;;;;37.63;20.92;;;0.30;83.60;;;;;;5030182;28;20510;-67
2022/12/10 03:57:35;;;;;;;44.42;24.52;;;0.40;83.60;;;;;;5030028;28;20040;-67
2022/12/10 04:00:00;;;;;;;58.42;31.23;;;0.30;83.60;;;;;;5030304;28;20037;-67
2022/12/10 04:02:26;;;;;;;43.75;24.50;;;0.30;83.70;;;;;;5026433;28;20088;-66
2022/12/10 04:04:52;;;;;;;41.60;23.00;;;0.20;83.80;;;;;;5025369;28;20026;-67
2022/12/10 04:07:17;;;;;;;38.47;21.08;;;0.30;83.90;;;;;;5029854;28;20535;-66
2022/12/10 04:09:43;;;;;;;38.83;22.27;;;0.30;83.90;;;;;;5030029;28;20091;-67
2022/12/10 04:12:08;;;;;;;40.45;22.85;;;0.30;83.90;;;;;;5029942;28;20095;-67
2022/12/10 04:17:20;;;;;;;51.65;26.83;;;0.40;83.90;;;;;;5026395;28;20036;-67
2022/12/10 04:19:45;;;;;;;53.17;27.70;;;0.40;83.80;;;;;;5027644;28;20104;-67
2022/12/10 04:27:55;;;;;;;49.72;25.95;;;0.40;83.70;;;;;;5029283;28;20097;-67
2022/12/10 04:30:21;;;;;;;47.40;23.88;;;0.40;83.70;;;;;;5029694;28;20057;-67
2022/12/10 04:32:47;;;;;;;52.08;26.75;;;0.50;83.80;;;;;;5011723;28;20476;-67
2022/12/10 04:35:12;;;;;;;49.92;25.77;;;0.50;83.80;;;;;;5027828;28;20033;-67
2022/12/10 04:37:38;;;;;;;44.45;21.55;;;0.50;83.80;;;;;;5029053;28;20030;-67
2022/12/10 04:40:05;;;;;;;59.47;24.88;;;0.50;83.90;;;;;;5030747;28;20044;-67
2022/12/10 04:42:30;;;;;;;48.80;22.25;;;0.50;83.80;;;;;;5011925;28;20021;-67
2022/12/10 04:44:56;;;;;;;41.80;21.13;;;0.50;83.90;;;;;;5016787;28;20503;-67
2022/12/10 04:47:22;;;;;;;68.55;26.58;;;0.50;84.00;;;;;;5024064;28;20032;-67
2022/12/10 04:49:47;;;;;;;51.15;25.70;;;0.60;83.90;;;;;;5028833;28;20029;-67
2022/12/10 04:52:15;;;;;;;46.45;21.88;;;0.50;84.00;;;;;;5011459;28;20087;-67
2022/12/10 04:54:41;;;;;;;47.88;21.60;;;0.60;84.00;;;;;;5032262;28;20052;-67
2022/12/10 04:57:07;;;;;;;46.13;23.52;;;0.60;84.00;;;;;;5031515;28;20156;-67
2022/12/10 04:59:34;;;;;;;108.95;27.75;;;0.60;84.00;;;;;;5029924;28;20108;-67
2022/12/10 05:02:00;;;;;;;59.53;23.23;;;0.60;83.90;;;;;;5029968;28;20030;-67
2022/12/10 05:04:25;;;;;;;65.60;25.13;;;0.50;84.00;;;;;;5012024;28;20712;-67
2022/12/10 05:06:51;;;;;;;89.20;27.58;;;0.50;84.00;;;;;;5010798;28;20029;-67
2022/12/10 05:09:17;;;;;;;48.58;23.60;;;0.50;84.30;;;;;;5028767;28;20049;-67
2022/12/10 05:11:46;;;;;;;56.72;24.98;;;0.50;84.20;;;;;;5029368;28;20022;-67
2022/12/10 05:14:13;;;;;;;62.85;23.58;;;0.50;84.20;;;;;;5027834;28;20029;-68
2022/12/10 05:16:39;;;;;;;50.97;23.58;;;0.60;84.20;;;;;;5002275;28;20036;-68
2022/12/10 05:19:05;;;;;;;68.47;23.33;;;0.60;84.10;;;;;;5025492;28;20057;-68
2022/12/10 05:24:16;;;;;;;58.88;26.98;;;0.60;84.00;;;;;;5029018;28;20068;-68
2022/12/10 05:26:42;;;;;;;76.75;25.20;;;0.60;84.10;;;;;;5028657;28;20068;-68
2022/12/10 05:29:08;;;;;;;233.10;35.45;;;0.60;84.10;;;;;;5028083;28;20101;-68
2022/12/10 05:31:34;;;;;;;61.20;27.95;;;0.60;84.10;;;;;;5029430;28;20009;-68
2022/12/10 05:33:59;;;;;;;129.32;29.48;;;0.50;84.20;;;;;;5029355;28;20024;-67
2022/12/10 05:36:28;;;;;;;66.30;24.05;;;0.50;84.40;;;;;;5032766;28;20025;-67
2022/12/10 05:38:55;;;;;;;75.97;26.13;;;0.50;84.30;;;;;;5029959;28;20076;-67
2022/12/10 05:41:23;;;;;;;71.63;25.08;;;0.40;84.20;;;;;;5031672;28;20037;-68
2022/12/10 05:43:50;;;;;;;95.13;30.05;;;0.50;84.40;;;;;;5016088;28;20041;-67
2022/12/10 05:46:27;;;;;;;61.45;24.17;;;0.40;84.30;;;;;;5013814;28;20033;-67
2022/12/10 05:48:54;;;;;;;71.20;25.65;;;0.40;84.60;;;;;;5031525;28;20439;-67
2022/12/10 05:51:23;;;;;;;227.68;33.47;;;0.30;84.60;;;;;;5014136;28;20492;-67
2022/12/10 05:53:48;;;;;;;95.95;28.52;;;0.30;84.80;;;;;;5031296;28;20057;-67
2022/12/10 05:56:18;;;;;;;94.70;25.67;;;0.20;84.80;;;;;;5029493;28;20451;-66
2022/12/10 05:58:45;;;;;;;101.95;28.10;;;0.20;85.00;;;;;;5027202;28;20563;-66
2022/12/10 06:01:23;;;;;;;80.43;24.08;;;0.20;85.10;;;;;;5031883;28;20109;-67
2022/12/10 06:03:52;;;;;;;85.32;27.20;;;0.30;85.30;;;;;;5027514;28;20050;-67
2022/12/10 06:06:28;;;;;;;270.95;39.25;;;0.30;85.00;;;;;;5031365;28;20021;-67
2022/12/10 06:08:54;;;;;;;72.97;26.05;;;0.30;85.00;;;;;;5025247;28;20037;-66
2022/12/10 06:11:20;;;;;;;115.38;29.38;;;0.20;85.10;;;;;;5030626;28;20025;-67
2022/12/10 06:13:45;;;;;;;105.68;25.33;;;0.20;85.20;;;;;;5031655;28;20431;-67
2022/12/10 06:16:13;;;;;;;69.18;25.10;;;0.30;85.30;;;;;;5030068;28;20029;-67
2022/12/10 06:18:40;;;;;;;112.32;26.63;;;0.20;85.30;;;;;;5032614;28;20025;-67
2022/12/10 06:21:07;;;;;;;177.82;32.97;;;0.20;85.40;;;;;;5031196;28;20216;-67
2022/12/10 06:23:34;;;;;;;121.13;29.27;;;0.20;85.50;;;;;;5032133;28;20045;-67
2022/12/10 06:26:07;;;;;;;129.45;26.52;;;0.10;85.70;;;;;;5027618;28;20088;-67
2022/12/10 06:28:33;;;;;;;65.35;22.75;;;0.20;85.90;;;;;;5024646;28;20045;-67
2022/12/10 06:30:59;;;;;;;281.25;32.83;;;0.20;85.80;;;;;;5025929;28;20440;-67
2022/12/10 06:33:25;;;;;;;134.13;31.17;;;0.30;85.60;;;;;;5026614;28;20055;-67
2022/12/10 06:35:51;;;;;;;71.38;25.25;;;0.20;85.50;;;;;;5026514;28;20400;-67
2022/12/10 06:38:16;;;;;;;60.30;24.05;;;0.30;85.70;;;;;;5031152;28;20068;-67
2022/12/10 06:40:42;;;;;;;46.47;21.75;;;0.30;85.50;;;;;;5026368;28;20047;-68
2022/12/10 06:43:08;;;;;;;56.78;22.80;;;0.40;85.50;;;;;;5031273;28;21783;-68
2022/12/10 06:45:33;;;;;;;96.95;22.65;;;0.40;85.30;;;;;;5028572;28;20053;-68
2022/12/10 06:47:59;;;;;;;75.78;22.85;;;0.50;85.30;;;;;;5030154;28;20034;-68
2022/12/10 06:50:25;;;;;;;121.95;26.33;;;0.40;85.30;;;;;;5032067;28;20028;-68
2022/12/10 06:52:50;;;;;;;60.10;24.27;;;0.50;85.30;;;;;;5029402;28;20574;-68
2022/12/10 06:55:16;;;;;;;82.75;25.52;;;0.40;85.20;;;;;;5030774;28;20542;-68
2022/12/10 06:57:42;;;;;;;100.18;24.95;;;0.50;85.40;;;;;;5030888;28;20061;-68
2022/12/10 07:00:08;;;;;;;166.75;28.85;;;0.50;85.40;;;;;;5031752;28;20395;-67
2022/12/10 07:02:34;;;;;;;68.95;25.15;;;0.50;85.20;;;;;;5030207;28;20731;-67
2022/12/10 07:05:00;;;;;;;123.32;28.52;;;0.40;85.20;;;;;;5031495;28;20743;-67
2022/12/10 07:07:25;;;;;;;56.10;23.55;;;0.30;85.20;;;;;;5021723;28;20018;-67
2022/12/10 07:09:51;;;;;;;96.68;27.35;;;0.20;85.30;;;;;;5021898;28;20038;-68
2022/12/10 07:12:17;;;;;;;59.63;27.02;;;0.20;85.30;;;;;;5026480;28;20048;-68
2022/12/10 07:14:42;;;;;;;122.88;29.83;;;0.20;85.50;;;;;;5030929;28;20025;-67
2022/12/10 07:17:08;;;;;;;126.68;29.42;;;0.20;85.60;;;;;;5030518;28;20034;-67
2022/12/10 07:19:33;;;;;;;100.68;25.80;;;0.10;85.50;;;;;;5030468;28;20750;-67
2022/12/10 07:21:59;;;;;;;66.60;26.75;;;0.10;85.60;;;;;;5031120;28;21345;-67
2022/12/10 07:24:24;;;;;;;64.15;23.40;;;0.10;85.70;;;;;;5028652;28;20049;-66
2022/12/10 07:29:22;;;;;;;59.97;22.60;;;0.20;85.20;;;;;;5061009;28;20453;-67
2022/12/10 07:31:49;;;;;;;60.40;21.50;;;0.20;85.60;;;;;;5065826;28;20050;-68
2022/12/10 07:34:15;;;;;;;105.38;24.15;;;0.20;85.50;;;;;;5062946;28;20033;-67
2022/12/10 07:36:41;;;;;;;82.15;24.60;;;0.30;85.60;;;;;;5060590;28;20046;-67
2022/12/10 07:39:08;;;;;;;54.45;22.77;;;0.30;85.50;;;;;;5055353;28;20546;-66
2022/12/10 07:41:35;;;;;;;61.35;22.63;;;0.30;85.60;;;;;;5065823;28;20364;-66
2022/12/10 07:44:02;;;;;;;68.65;25.70;;;0.30;85.60;;;;;;5062292;28;20103;-66
2022/12/10 07:46:30;;;;;;;44.47;20.48;;;0.30;85.30;;;;;;5064211;28;20025;-66
2022/12/10 07:48:56;;;;;;;117.03;23.60;;;0.30;85.30;;;;;;5056228;28;20415;-67
2022/12/10 07:51:22;;;;;;;83.65;20.15;;;0.30;85.20;;;;;;5063047;28;20074;-67
2022/12/10 07:53:52;;;;;;;50.17;21.90;;;0.30;85.20;;;;;;5061735;28;20082;-67
2022/12/10 07:56:17;;;;;;;85.65;24.95;;;0.20;85.20;;;;;;5065763;28;20029;-67
2022/12/10 07:58:44;;;;;;;63.83;24.10;;;0.20;85.30;;;;;;5059966;28;20399;-67
2022/12/10 08:01:13;;;;;;;97.18;24.60;;;0.20;85.40;;;;;;5063978;28;20040;-67
2022/12/10 08:03:39;;;;;;;112.45;26.00;;;0.30;85.50;;;;;;5064030;28;20032;-67
2022/12/10 08:06:08;;;;;;;62.42;21.75;;;0.20;85.20;;;;;;5062848;28;20033;-67
2022/12/10 08:08:35;;;;;;;51.97;21.75;;;0.20;85.20;;;;;;5062186;28;20030;-67
2022/12/10 08:11:01;;;;;;;75.25;23.50;;;0.20;85.20;;;;;;5063979;28;20071;-67
2022/12/10 08:13:28;;;;;;;78.38;23.60;;;0.10;85.10;;;;;;5063235;28;20025;-67
2022/12/10 08:15:53;;;;;;;67.05;22.50;;;0.10;85.30;;;;;;5055772;28;20025;-67
2022/12/10 08:18:20;;;;;;;97.05;27.02;;;0.10;85.50;;;;;;5060667;28;20025;-67
2022/12/10 08:20:46;;;;;;;116.43;26.77;;;0.10;85.40;;;;;;5064323;28;20029;-67
2022/12/10 08:23:11;;;;;;;73.50;24.30;;;0.00;85.50;;;;;;5064852;28;20032;-67
2022/12/10 08:25:37;;;;;;;76.82;21.77;;;0.10;85.60;;;;;;5064345;28;20104;-67
2022/12/10 08:28:03;;;;;;;70.50;23.85;;;0.10;85.70;;;;;;5060974;28;20037;-67
2022/12/10 08:30:29;;;;;;;70.85;23.63;;;0.10;85.60;;;;;;5055969;28;20017;-67
2022/12/10 08:32:55;;;;;;;45.63;19.25;;;0.10;85.70;;;;;;5060659;28;20404;-67
2022/12/10 08:35:21;;;;;;;145.55;26.45;;;0.20;85.70;;;;;;5054748;28;20025;-67
2022/12/10 08:37:47;;;;;;;78.80;26.15;;;0.30;85.70;;;;;;5059357;28;20028;-67
2022/12/10 08:40:12;;;;;;;66.47;24.60;;;0.30;85.60;;;;;;5049572;28;20033;-67
2022/12/10 08:42:38;;;;;;;61.67;24.73;;;0.30;85.60;;;;;;5045354;28;20025;-67
2022/12/10 08:45:05;;;;;;;74.55;22.35;;;0.30;85.60;;;;;;5041053;28;20021;-67
2022/12/10 08:47:30;;;;;;;78.65;23.08;;;0.40;85.70;;;;;;5041074;28;20047;-66
2022/12/10 08:49:56;;;;;;;96.47;26.00;;;0.40;85.70;;;;;;5040608;28;20021;-66
2022/12/10 08:52:21;;;;;;;94.47;31.20;;;0.50;85.70;;;;;;5040003;28;21516;-66
2022/12/10 08:54:47;;;;;;;71.47;26.42;;;0.30;85.50;;;;;;5038716;28;20462;-66
2022/12/10 08:57:13;;;;;;;71.13;24.45;;;0.40;85.80;;;;;;5040723;28;20079;-66
2022/12/10 08:59:38;;;;;;;471.67;38.85;;;0.40;85.90;;;;;;5039866;28;20026;-66
2022/12/10 09:02:04;;;;;;;72.35;26.02;;;0.40;85.80;;;;;;5043760;28;20111;-66
2022/12/10 09:04:29;;;;;;;300.17;33.17;;;0.40;85.80;;;;;;5038832;28;20021;-66
2022/12/10 09:06:55;;;;;;;225.88;31.40;;;0.40;85.90;;;;;;5043850;28;20032;-66
2022/12/10 09:09:20;;;;;;;100.70;27.17;;;0.30;85.70;;;;;;5040374;28;20037;-65
2022/12/10 09:11:46;;;;;;;60.72;23.48;;;0.10;86.00;;;;;;5038566;28;20047;-65
2022/12/10 09:14:12;;;;;;;50.75;19.90;;;0.10;86.30;;;;;;5041621;28;20439;-66
2022/12/10 09:16:39;;;;;;;101.45;24.40;;;0.20;86.50;;;;;;5040369;28;20028;-66
2022/12/10 09:19:05;;;;;;;213.27;26.98;;;0.20;86.40;;;;;;5040584;28;20033;-66
2022/12/10 09:21:31;;;;;;;74.15;23.90;;;0.30;86.50;;;;;;5039384;28;20399;-67
2022/12/10 09:23:58;;;;;;;53.17;21.83;;;0.20;86.40;;;;;;5043668;28;20527;-66
2022/12/10 09:26:24;;;;;;;387.83;35.65;;;0.20;86.60;;;;;;5042782;28;20029;-65
2022/12/10 09:28:50;;;;;;;142.55;27.02;;;0.20;86.70;;;;;;5044093;28;20048;-66
2022/12/10 09:31:18;;;;;;;221.40;29.33;;;0.20;86.90;;;;;;5043623;28;20484;-66
2022/12/10 09:33:45;;;;;;;72.85;22.00;;;0.20;87.00;;;;;;5039797;28;20025;-66
2022/12/10 09:36:13;;;;;;;70.45;21.15;;;0.20;87.10;;;;;;5044329;28;20500;-66
2022/12/10 09:38:40;;;;;;;88.82;20.63;;;0.20;87.10;;;;;;5043301;28;20021;-66
2022/12/10 09:41:26;;;;;;;72.47;21.58;;;0.30;87.10;;;;;;5040676;28;20032;-66
2022/12/10 09:44:03;;;;;;;162.27;24.98;;;0.30;87.10;;;;;;5038726;28;20048;-66
2022/12/10 09:46:51;;;;;;;60.67;20.00;;;0.40;87.10;;;;;;5043674;28;20021;-67
2022/12/10 09:49:25;;;;;;;74.60;18.60;;;0.40;87.10;;;;;;5040739;28;20078;-67
2022/12/10 09:51:55;;;;;;;269.08;32.53;;;0.50;87.00;;;;;;5043307;28;20009;-66
2022/12/10 09:54:23;;;;;;;45.85;19.08;;;0.50;86.80;;;;;;5041832;28;20032;-66
2022/12/10 09:56:51;;;;;;;112.30;20.40;;;0.40;87.00;;;;;;5042970;28;20076;-66
2022/12/10 09:59:46;;;;;;;77.75;20.55;;;0.40;87.10;;;;;;5042367;28;20026;-66
2022/12/10 10:02:29;;;;;;;119.53;20.77;;;0.50;87.20;;;;;;5040158;28;20128;-67
2022/12/10 10:05:07;;;;;;;44.92;19.00;;;0.60;87.30;;;;;;5047236;28;20132;-67
2022/12/10 10:07:41;;;;;;;44.17;18.73;;;0.60;87.10;;;;;;5030325;28;20025;-66
2022/12/10 10:10:19;;;;;;;75.95;20.33;;;0.70;87.60;;;;;;5044032;28;20100;-66
2022/12/10 10:12:45;;;;;;;60.97;22.95;;;0.70;86.90;;;;;;5041687;28;20047;-66
2022/12/10 10:15:20;;;;;;;39.50;16.05;;;0.70;86.90;;;;;;5045876;28;20064;-67
2022/12/10 10:17:49;;;;;;;238.95;26.88;;;0.70;87.10;;;;;;5049115;28;20030;-66
2022/12/10 10:20:15;;;;;;;65.28;22.13;;;0.80;87.00;;;;;;5045008;28;20116;-66
2022/12/10 10:22:41;;;;;;;57.25;19.98;;;0.70;86.90;;;;;;5049787;28;20029;-65
2022/12/10 10:25:17;;;;;;;39.95;15.65;;;0.70;86.90;;;;;;5046051;28;20040;-65
2022/12/10 10:27:43;;;;;;;155.75;23.58;;;0.80;87.10;;;;;;5043821;28;20545;-65
2022/12/10 10:30:18;;;;;;;62.97;19.58;;;0.80;87.00;;;;;;5039626;28;20018;-65
2022/12/10 10:32:48;;;;;;;124.95;26.33;;;0.70;87.00;;;;;;5042514;28;20048;-65
2022/12/10 10:35:33;;;;;;;116.10;26.02;;;0.70;86.90;;;;;;5043640;28;20016;-65
2022/12/10 10:38:04;;;;;;;46.88;19.60;;;0.70;87.00;;;;;;5048198;28;20036;-65
2022/12/10 10:40:40;;;;;;;79.00;22.73;;;0.70;87.30;;;;;;5037348;28;20024;-66
2022/12/10 10:43:32;;;;;;;72.50;20.42;;;0.70;87.20;;;;;;5040996;28;20391;-66
2022/12/10 10:46:10;;;;;;;278.27;31.88;;;0.70;87.30;;;;;;5038232;28;20498;-66
2022/12/10 10:48:36;;;;;;;56.50;21.10;;;0.70;87.10;;;;;;5046341;28;20103;-66
2022/12/10 10:51:12;;;;;;;59.05;21.48;;;0.80;87.40;;;;;;5040042;28;20025;-66
2022/12/10 10:53:38;;;;;;;62.88;18.70;;;0.90;87.40;;;;;;5042597;28;20017;-66
2022/12/10 10:56:20;;;;;;;67.18;23.23;;;0.90;87.20;;;;;;5037267;28;20015;-66
2022/12/10 10:58:55;;;;;;;51.85;20.52;;;1.00;87.20;;;;;;5041361;28;20029;-66
2022/12/10 11:01:21;;;;;;;48.17;17.98;;;1.00;87.10;;;;;;5040474;28;20029;-66
2022/12/10 11:03:50;;;;;;;52.15;20.85;;;1.00;87.10;;;;;;5041713;28;20414;-66
2022/12/10 11:06:16;;;;;;;60.97;20.65;;;1.00;87.00;;;;;;5041035;28;20078;-66
2022/12/10 11:08:44;;;;;;;74.28;22.05;;;0.90;87.10;;;;;;5041214;28;20033;-66
2022/12/10 11:11:20;;;;;;;42.95;19.60;;;1.00;87.20;;;;;;5040169;28;20071;-66
2022/12/10 11:13:46;;;;;;;66.60;20.38;;;1.00;87.20;;;;;;5040690;28;20032;-66
2022/12/10 11:16:21;;;;;;;47.30;19.65;;;1.10;87.20;;;;;;5042193;28;20511;-66
2022/12/10 11:18:52;;;;;;;104.82;24.10;;;1.20;87.20;;;;;;5041148;28;20037;-66
2022/12/10 11:21:21;;;;;;;102.00;21.77;;;1.10;86.90;;;;;;5038161;28;20129;-66
2022/12/10 11:23:52;;;;;;;89.88;25.48;;;1.10;87.10;;;;;;5041208;28;20029;-66
2022/12/10 11:26:25;;;;;;;174.40;28.63;;;1.10;87.00;;;;;;5038341;28;20479;-66
2022/12/10 11:29:05;;;;;;;238.45;28.48;;;1.00;87.00;;;;;;5037749;28;20064;-66
2022/12/10 11:31:42;;;;;;;51.25;18.83;;;1.00;87.20;;;;;;5042383;28;20037;-66
2022/12/10 11:34:11;;;;;;;47.50;18.17;;;1.00;87.50;;;;;;5043805;28;20476;-66
2022/12/10 11:37:14;;;;;;;55.08;19.50;;;1.10;87.30;;;;;;5039687;28;20036;-66
2022/12/10 11:40:00;;;;;;;313.92;29.50;;;1.20;87.30;;;;;;5040040;28;20079;-66
2022/12/10 11:42:26;;;;;;;38.35;17.80;;;1.20;87.10;;;;;;5041738;28;20025;-66
2022/12/10 11:45:20;;;;;;;57.22;20.15;;;1.20;87.00;;;;;;5040561;28;20033;-66
2022/12/10 11:48:04;;;;;;;171.35;21.08;;;1.30;87.10;;;;;;5045382;28;20033;-66
2022/12/10 11:50:47;;;;;;;65.70;21.23;;;1.30;87.20;;;;;;5039907;28;20092;-66
2022/12/10 11:53:15;;;;;;;;;;;1.20;87.00;;;;;;5040669;28;20028;-66
2022/12/10 11:56:07;;;;;;;116.45;21.73;;;1.30;86.90;;;;;;5041449;28;19924;-66
2022/12/10 11:58:51;;;;;;;136.57;25.00;;;1.20;86.80;;;;;;5040164;28;20029;-67
2022/12/10 12:01:31;;;;;;;56.28;17.20;;;1.10;86.80;;;;;;5043125;28;20112;-66
2022/12/10 12:03:57;;;;;;;58.28;19.08;;;1.10;87.20;;;;;;5038211;28;20022;-66
2022/12/10 12:06:44;;;;;;;37.35;16.10;;;1.10;87.10;;;;;;5047207;28;20147;-66
2022/12/10 12:09:20;;;;;;;49.15;16.65;;;1.10;87.20;;;;;;5041648;28;20036;-66
2022/12/10 12:12:15;;;;;;;34.08;15.65;;;1.20;87.10;;;;;;5035367;28;20049;-66
2022/12/10 12:15:01;;;;;;;41.03;16.27;;;1.20;87.10;;;;;;5038158;28;20037;-65
2022/12/10 12:17:41;;;;;;;82.18;17.30;;;1.20;87.00;;;;;;5045002;28;20049;-66
2022/12/10 12:20:17;;;;;;;117.20;21.48;;;1.30;87.20;;;;;;5045719;28;20087;-66
2022/12/10 12:22:47;;;;;;;37.00;15.82;;;1.20;87.10;;;;;;5043764;28;20479;-66
2022/12/10 12:25:23;;;;;;;52.42;16.50;;;1.30;87.30;;;;;;5045597;28;20032;-66
2022/12/10 12:27:53;;;;;;;48.83;17.30;;;1.40;87.30;;;;;;5045530;28;20024;-66
2022/12/10 12:30:21;;;;;;;158.90;20.48;;;1.30;87.10;;;;;;5048415;28;20096;-65
2022/12/10 12:33:00;;;;;;;120.88;20.63;;;1.30;87.10;;;;;;5044889;28;20039;-65
2022/12/10 12:35:46;;;;;;;45.28;16.80;;;1.20;87.00;;;;;;5049068;28;20032;-65
2022/12/10 12:38:30;;;;;;;183.55;20.90;;;1.30;87.20;;;;;;5043452;28;20051;-65
2022/12/10 12:41:09;;;;;;;61.33;17.42;;;1.30;87.20;;;;;;5048172;28;20029;-65
2022/12/10 12:43:35;;;;;;;84.90;18.27;;;1.30;87.00;;;;;;5039510;28;20518;-66
2022/12/10 12:46:03;;;;;;;89.68;19.80;;;1.40;87.00;;;;;;5043216;28;20028;-66
2022/12/10 12:48:34;;;;;;;41.97;15.88;;;1.40;87.00;;;;;;5037928;28;20032;-66
2022/12/10 12:51:18;;;;;;;98.30;19.85;;;1.50;87.00;;;;;;5041572;28;20029;-65
2022/12/10 12:53:44;;;;;;;43.00;15.35;;;1.50;86.90;;;;;;5041634;28;20025;-66
2022/12/10 12:56:29;;;;;;;46.10;15.38;;;1.60;86.90;;;;;;5045712;28;20021;-67
2022/12/10 12:59:31;;;;;;;47.70;15.27;;;1.70;86.90;;;;;;5044227;28;20036;-65
2022/12/10 13:02:13;;;;;;;93.47;19.52;;;1.70;86.70;;;;;;5047264;28;20026;-66
2022/12/10 13:04:39;;;;;;;45.92;16.70;;;1.80;86.50;;;;;;5044243;28;20032;-67